sensor_id;sensor_type;location;lat;lon;timestamp;pressure;altitude;pressure_sealevel;temperature;humidity
6433;BME280;3249;42.690;23.260;2023-07-22T00:00:15;94286.97;;;22.66;100.00
6433;BME280;3249;42.690;23.260;2023-07-22T00:02:46;94296.34;;;22.40;100.00
6433;BME280;3249;42.690;23.260;2023-07-22T00:05:15;94307.03;;;22.44;100.00
6433;BME280;3249;42.690;23.260;2023-07-22T00:07:49;94309.00;;;22.52;100.00
6433;BME280;3249;42.690;23.260;2023-07-22T00:10:18;94298.19;;;21.89;100.00
6433;BME280;3249;42.690;23.260;2023-07-22T00:12:47;94309.22;;;22.04;100.00
6433;BME280;3249;42.690;23.260;2023-07-22T00:15:20;94306.00;;;22.26;100.00
6433;BME280;3249;42.690;23.260;2023-07-22T00:17:49;94305.91;;;22.31;100.00
6433;BME280;3249;42.690;23.260;2023-07-22T00:20:18;94296.25;;;22.13;100.00
6433;BME280;3249;42.690;23.260;2023-07-22T00:22:48;94305.88;;;22.18;100.00
6433;BME280;3249;42.690;23.260;2023-07-22T00:25:17;94306.38;;;22.20;100.00
6433;BME280;3249;42.690;23.260;2023-07-22T00:27:48;94302.94;;;21.87;100.00
6433;BME280;3249;42.690;23.260;2023-07-22T00:30:20;94308.81;;;21.98;100.00
6433;BME280;3249;42.690;23.260;2023-07-22T00:32:48;94299.66;;;21.95;100.00
6433;BME280;3249;42.690;23.260;2023-07-22T00:35:17;94299.66;;;21.95;100.00
6433;BME280;3249;42.690;23.260;2023-07-22T00:37:47;94300.16;;;21.97;100.00
6433;BME280;3249;42.690;23.260;2023-07-22T00:40:16;94293.78;;;22.03;100.00
6433;BME280;3249;42.690;23.260;2023-07-22T00:42:46;94304.47;;;22.07;100.00
6433;BME280;3249;42.690;23.260;2023-07-22T00:45:15;94305.69;;;21.95;100.00
6433;BME280;3249;42.690;23.260;2023-07-22T00:47:47;94308.34;;;21.77;100.00
6433;BME280;3249;42.690;23.260;2023-07-22T00:50:16;94321.63;;;21.99;100.00
6433;BME280;3249;42.690;23.260;2023-07-22T00:52:45;94327.63;;;22.18;100.00
6433;BME280;3249;42.690;23.260;2023-07-22T00:55:15;94317.97;;;21.81;100.00
6433;BME280;3249;42.690;23.260;2023-07-22T00:57:46;94312.13;;;22.03;100.00
6433;BME280;3249;42.690;23.260;2023-07-22T01:00:16;94311.00;;;22.09;100.00
6433;BME280;3249;42.690;23.260;2023-07-22T01:02:47;94310.47;;;22.26;100.00
6433;BME280;3249;42.690;23.260;2023-07-22T01:05:17;94297.69;;;21.87;100.00
6433;BME280;3249;42.690;23.260;2023-07-22T01:07:46;94308.03;;;21.97;100.00
6433;BME280;3249;42.690;23.260;2023-07-22T01:10:15;94295.22;;;21.95;100.00
6433;BME280;3249;42.690;23.260;2023-07-22T01:12:45;94291.22;;;21.98;100.00
6433;BME280;3249;42.690;23.260;2023-07-22T01:15:14;94268.31;;;21.71;100.00
6433;BME280;3249;42.690;23.260;2023-07-22T01:17:46;94280.84;;;21.56;100.00
6433;BME280;3249;42.690;23.260;2023-07-22T01:20:16;94298.75;;;21.67;100.00
6433;BME280;3249;42.690;23.260;2023-07-22T01:22:52;94297.06;;;21.76;100.00
6433;BME280;3249;42.690;23.260;2023-07-22T01:25:22;94284.75;;;21.77;100.00
6433;BME280;3249;42.690;23.260;2023-07-22T01:27:52;94285.19;;;21.84;100.00
6433;BME280;3249;42.690;23.260;2023-07-22T01:30:21;94283.75;;;21.73;100.00
6433;BME280;3249;42.690;23.260;2023-07-22T01:32:51;94268.56;;;21.51;100.00
6433;BME280;3249;42.690;23.260;2023-07-22T01:35:20;94278.97;;;21.56;100.00
6433;BME280;3249;42.690;23.260;2023-07-22T01:37:49;94275.44;;;21.66;100.00
6433;BME280;3249;42.690;23.260;2023-07-22T01:40:20;94268.38;;;21.66;100.00
6433;BME280;3249;42.690;23.260;2023-07-22T01:42:49;94274.88;;;21.69;100.00
6433;BME280;3249;42.690;23.260;2023-07-22T01:45:19;94271.81;;;21.62;100.00
6433;BME280;3249;42.690;23.260;2023-07-22T01:47:48;94263.13;;;21.48;100.00
6433;BME280;3249;42.690;23.260;2023-07-22T01:50:20;94276.63;;;21.55;100.00
6433;BME280;3249;42.690;23.260;2023-07-22T01:52:49;94269.22;;;21.62;100.00
6433;BME280;3249;42.690;23.260;2023-07-22T01:55:20;94249.88;;;21.58;100.00
6433;BME280;3249;42.690;23.260;2023-07-22T01:57:50;94260.06;;;21.59;100.00
6433;BME280;3249;42.690;23.260;2023-07-22T02:00:20;94268.38;;;21.48;100.00
6433;BME280;3249;42.690;23.260;2023-07-22T02:02:49;94264.50;;;21.22;100.00
6433;BME280;3249;42.690;23.260;2023-07-22T02:05:18;94262.09;;;21.07;100.00
6433;BME280;3249;42.690;23.260;2023-07-22T02:07:47;94265.25;;;20.80;100.00
6433;BME280;3249;42.690;23.260;2023-07-22T02:10:16;94262.53;;;20.90;100.00
6433;BME280;3249;42.690;23.260;2023-07-22T02:12:47;94259.75;;;21.05;100.00
6433;BME280;3249;42.690;23.260;2023-07-22T02:15:17;94267.31;;;21.07;100.00
6433;BME280;3249;42.690;23.260;2023-07-22T02:17:47;94259.59;;;20.97;100.00
6433;BME280;3249;42.690;23.260;2023-07-22T02:20:16;94258.34;;;20.66;100.00
6433;BME280;3249;42.690;23.260;2023-07-22T02:22:45;94265.06;;;20.48;100.00
6433;BME280;3249;42.690;23.260;2023-07-22T02:25:15;94272.44;;;20.70;100.00
6433;BME280;3249;42.690;23.260;2023-07-22T02:27:44;94270.53;;;20.75;100.00
6433;BME280;3249;42.690;23.260;2023-07-22T02:30:16;94271.31;;;20.76;100.00
6433;BME280;3249;42.690;23.260;2023-07-22T02:32:45;94276.06;;;20.74;100.00
6433;BME280;3249;42.690;23.260;2023-07-22T02:35:14;94275.00;;;20.75;100.00
6433;BME280;3249;42.690;23.260;2023-07-22T02:37:43;94276.00;;;20.79;100.00
6433;BME280;3249;42.690;23.260;2023-07-22T02:40:12;94275.88;;;20.65;100.00
6433;BME280;3249;42.690;23.260;2023-07-22T02:42:41;94272.06;;;20.29;100.00
6433;BME280;3249;42.690;23.260;2023-07-22T02:45:10;94267.25;;;20.13;100.00
6433;BME280;3249;42.690;23.260;2023-07-22T02:47:42;94277.22;;;20.34;100.00
6433;BME280;3249;42.690;23.260;2023-07-22T02:50:11;94275.47;;;20.53;100.00
6433;BME280;3249;42.690;23.260;2023-07-22T02:52:40;94275.94;;;20.60;100.00
6433;BME280;3249;42.690;23.260;2023-07-22T02:55:11;94276.66;;;20.66;100.00
6433;BME280;3249;42.690;23.260;2023-07-22T02:57:41;94261.66;;;20.48;100.00
6433;BME280;3249;42.690;23.260;2023-07-22T03:00:10;94289.34;;;20.54;100.00
6433;BME280;3249;42.690;23.260;2023-07-22T03:02:46;94277.53;;;20.33;100.00
6433;BME280;3249;42.690;23.260;2023-07-22T03:05:15;94280.44;;;20.55;100.00
6433;BME280;3249;42.690;23.260;2023-07-22T03:07:44;94274.38;;;20.59;100.00
6433;BME280;3249;42.690;23.260;2023-07-22T03:10:13;94279.69;;;20.49;100.00
6433;BME280;3249;42.690;23.260;2023-07-22T03:12:42;94269.75;;;20.23;100.00
6433;BME280;3249;42.690;23.260;2023-07-22T03:15:11;94272.91;;;20.25;100.00
6433;BME280;3249;42.690;23.260;2023-07-22T03:17:40;94285.22;;;20.48;100.00
6433;BME280;3249;42.690;23.260;2023-07-22T03:20:13;94278.88;;;20.54;100.00
6433;BME280;3249;42.690;23.260;2023-07-22T03:22:45;94276.75;;;20.56;100.00
6433;BME280;3249;42.690;23.260;2023-07-22T03:25:15;94284.13;;;20.54;100.00
6433;BME280;3249;42.690;23.260;2023-07-22T03:27:45;94281.75;;;20.29;100.00
6433;BME280;3249;42.690;23.260;2023-07-22T03:30:15;94293.66;;;20.40;100.00
6433;BME280;3249;42.690;23.260;2023-07-22T03:32:46;94301.31;;;20.60;100.00
6433;BME280;3249;42.690;23.260;2023-07-22T03:35:19;94292.38;;;20.66;100.00
6433;BME280;3249;42.690;23.260;2023-07-22T03:37:48;94294.81;;;20.81;100.00
6433;BME280;3249;42.690;23.260;2023-07-22T03:40:17;94303.41;;;20.86;100.00
6433;BME280;3249;42.690;23.260;2023-07-22T03:42:53;94314.50;;;21.02;100.00
6433;BME280;3249;42.690;23.260;2023-07-22T03:45:24;94301.91;;;21.04;100.00
6433;BME280;3249;42.690;23.260;2023-07-22T03:47:56;94307.03;;;21.14;100.00
6433;BME280;3249;42.690;23.260;2023-07-22T03:50:27;94312.66;;;21.26;100.00
6433;BME280;3249;42.690;23.260;2023-07-22T03:52:56;94324.56;;;21.37;100.00
6433;BME280;3249;42.690;23.260;2023-07-22T03:55:25;94333.56;;;21.49;100.00
6433;BME280;3249;42.690;23.260;2023-07-22T03:57:55;94333.38;;;21.64;100.00
6433;BME280;3249;42.690;23.260;2023-07-22T04:00:24;94333.47;;;21.78;100.00
6433;BME280;3249;42.690;23.260;2023-07-22T04:02:53;94335.47;;;21.86;100.00
6433;BME280;3249;42.690;23.260;2023-07-22T04:05:22;94329.28;;;21.95;100.00
6433;BME280;3249;42.690;23.260;2023-07-22T04:07:53;94340.47;;;22.20;100.00
6433;BME280;3249;42.690;23.260;2023-07-22T04:10:22;94340.94;;;22.40;100.00
6433;BME280;3249;42.690;23.260;2023-07-22T04:12:52;94341.94;;;22.76;100.00
6433;BME280;3249;42.690;23.260;2023-07-22T04:15:20;94336.09;;;22.93;100.00
6433;BME280;3249;42.690;23.260;2023-07-22T04:17:49;94339.91;;;23.14;100.00
6433;BME280;3249;42.690;23.260;2023-07-22T04:20:18;94341.38;;;23.33;100.00
6433;BME280;3249;42.690;23.260;2023-07-22T04:22:50;94337.91;;;23.24;100.00
6433;BME280;3249;42.690;23.260;2023-07-22T04:25:22;94349.19;;;23.25;100.00
6433;BME280;3249;42.690;23.260;2023-07-22T04:27:51;94347.91;;;23.22;100.00
6433;BME280;3249;42.690;23.260;2023-07-22T04:30:21;94353.34;;;23.12;100.00
6433;BME280;3249;42.690;23.260;2023-07-22T04:32:50;94333.97;;;22.95;100.00
6433;BME280;3249;42.690;23.260;2023-07-22T04:35:19;94363.09;;;23.25;100.00
6433;BME280;3249;42.690;23.260;2023-07-22T04:37:48;94363.09;;;23.25;100.00
6433;BME280;3249;42.690;23.260;2023-07-22T04:40:17;94359.31;;;23.31;100.00
6433;BME280;3249;42.690;23.260;2023-07-22T04:42:49;94356.56;;;23.36;100.00
6433;BME280;3249;42.690;23.260;2023-07-22T04:45:19;94359.19;;;23.23;100.00
6433;BME280;3249;42.690;23.260;2023-07-22T04:47:49;94350.22;;;22.51;100.00
6433;BME280;3249;42.690;23.260;2023-07-22T04:50:18;94358.66;;;22.48;100.00
6433;BME280;3249;42.690;23.260;2023-07-22T04:52:48;94358.09;;;22.83;100.00
6433;BME280;3249;42.690;23.260;2023-07-22T04:55:17;94354.41;;;22.98;100.00
6433;BME280;3249;42.690;23.260;2023-07-22T04:57:50;94355.25;;;22.93;100.00
6433;BME280;3249;42.690;23.260;2023-07-22T05:00:18;94354.97;;;22.95;100.00
6433;BME280;3249;42.690;23.260;2023-07-22T05:02:48;94362.81;;;22.81;100.00
6433;BME280;3249;42.690;23.260;2023-07-22T05:05:18;94366.53;;;22.80;100.00
6433;BME280;3249;42.690;23.260;2023-07-22T05:07:48;94376.28;;;22.61;100.00
6433;BME280;3249;42.690;23.260;2023-07-22T05:10:19;94361.16;;;22.21;100.00
6433;BME280;3249;42.690;23.260;2023-07-22T05:12:50;94372.56;;;22.30;100.00
6433;BME280;3249;42.690;23.260;2023-07-22T05:15:19;94373.47;;;22.58;100.00
6433;BME280;3249;42.690;23.260;2023-07-22T05:17:49;94365.28;;;22.91;100.00
6433;BME280;3249;42.690;23.260;2023-07-22T05:20:18;94374.53;;;23.02;100.00
6433;BME280;3249;42.690;23.260;2023-07-22T05:22:48;94367.56;;;23.11;100.00
6433;BME280;3249;42.690;23.260;2023-07-22T05:25:18;94375.28;;;22.89;100.00
6433;BME280;3249;42.690;23.260;2023-07-22T05:27:46;94374.00;;;22.73;100.00
6433;BME280;3249;42.690;23.260;2023-07-22T05:30:19;94373.06;;;22.51;100.00
6433;BME280;3249;42.690;23.260;2023-07-22T05:32:51;94379.63;;;22.67;100.00
6433;BME280;3249;42.690;23.260;2023-07-22T05:35:20;94384.31;;;22.70;100.00
6433;BME280;3249;42.690;23.260;2023-07-22T05:37:49;94381.03;;;22.91;100.00
6433;BME280;3249;42.690;23.260;2023-07-22T05:40:19;94385.66;;;22.67;100.00
6433;BME280;3249;42.690;23.260;2023-07-22T05:42:48;94384.88;;;22.67;100.00
6433;BME280;3249;42.690;23.260;2023-07-22T05:45:20;94380.06;;;22.87;100.00
6433;BME280;3249;42.690;23.260;2023-07-22T05:47:48;94384.66;;;22.95;100.00
6433;BME280;3249;42.690;23.260;2023-07-22T05:50:17;94359.06;;;23.01;100.00
6433;BME280;3249;42.690;23.260;2023-07-22T05:52:46;94377.19;;;23.29;100.00
6433;BME280;3249;42.690;23.260;2023-07-22T05:55:16;94382.16;;;23.58;100.00
6433;BME280;3249;42.690;23.260;2023-07-22T05:57:45;94384.69;;;23.49;100.00
6433;BME280;3249;42.690;23.260;2023-07-22T06:00:15;94381.50;;;23.52;100.00
6433;BME280;3249;42.690;23.260;2023-07-22T06:02:47;94381.47;;;23.79;100.00
6433;BME280;3249;42.690;23.260;2023-07-22T06:05:17;94396.56;;;24.01;100.00
6433;BME280;3249;42.690;23.260;2023-07-22T06:07:46;94396.72;;;24.04;100.00
6433;BME280;3249;42.690;23.260;2023-07-22T06:10:15;94413.22;;;23.96;100.00
6433;BME280;3249;42.690;23.260;2023-07-22T06:12:44;94419.03;;;24.42;100.00
6433;BME280;3249;42.690;23.260;2023-07-22T06:15:13;94413.44;;;24.22;100.00
6433;BME280;3249;42.690;23.260;2023-07-22T06:17:42;94424.31;;;24.42;100.00
6433;BME280;3249;42.690;23.260;2023-07-22T06:20:15;94425.06;;;24.78;100.00
6433;BME280;3249;42.690;23.260;2023-07-22T06:22:43;94426.47;;;24.84;100.00
6433;BME280;3249;42.690;23.260;2023-07-22T06:25:12;94423.09;;;25.14;100.00
6433;BME280;3249;42.690;23.260;2023-07-22T06:27:42;94433.53;;;24.97;100.00
6433;BME280;3249;42.690;23.260;2023-07-22T06:30:12;94434.06;;;25.08;100.00
6433;BME280;3249;42.690;23.260;2023-07-22T06:32:40;94436.94;;;25.20;100.00
6433;BME280;3249;42.690;23.260;2023-07-22T06:35:10;94432.19;;;25.08;100.00
6433;BME280;3249;42.690;23.260;2023-07-22T06:37:41;94440.56;;;24.80;100.00
6433;BME280;3249;42.690;23.260;2023-07-22T06:40:11;94444.03;;;24.67;100.00
6433;BME280;3249;42.690;23.260;2023-07-22T06:42:44;94436.84;;;24.81;100.00
6433;BME280;3249;42.690;23.260;2023-07-22T06:45:13;94436.66;;;24.99;100.00
6433;BME280;3249;42.690;23.260;2023-07-22T06:47:42;94439.53;;;25.42;100.00
6433;BME280;3249;42.690;23.260;2023-07-22T06:50:13;94436.00;;;25.46;100.00
6433;BME280;3249;42.690;23.260;2023-07-22T06:52:44;94424.50;;;25.42;100.00
6433;BME280;3249;42.690;23.260;2023-07-22T06:55:14;94434.09;;;25.38;100.00
6433;BME280;3249;42.690;23.260;2023-07-22T06:57:43;94431.91;;;25.71;100.00
6433;BME280;3249;42.690;23.260;2023-07-22T07:00:12;94427.44;;;25.88;100.00
6433;BME280;3249;42.690;23.260;2023-07-22T07:02:41;94417.94;;;25.70;100.00
6433;BME280;3249;42.690;23.260;2023-07-22T07:05:11;94426.25;;;26.12;100.00
6433;BME280;3249;42.690;23.260;2023-07-22T07:07:40;94423.31;;;25.96;100.00
6433;BME280;3249;42.690;23.260;2023-07-22T07:10:12;94426.31;;;26.29;100.00
6433;BME280;3249;42.690;23.260;2023-07-22T07:12:41;94422.25;;;26.48;98.91
6433;BME280;3249;42.690;23.260;2023-07-22T07:15:11;94429.25;;;26.53;96.54
6433;BME280;3249;42.690;23.260;2023-07-22T07:17:39;94432.06;;;26.56;95.95
6433;BME280;3249;42.690;23.260;2023-07-22T07:20:09;94427.09;;;26.72;94.56
6433;BME280;3249;42.690;23.260;2023-07-22T07:22:38;94429.38;;;26.99;93.12
6433;BME280;3249;42.690;23.260;2023-07-22T07:25:07;94425.63;;;27.08;91.05
6433;BME280;3249;42.690;23.260;2023-07-22T07:27:40;94423.75;;;27.26;90.34
6433;BME280;3249;42.690;23.260;2023-07-22T07:30:10;94423.59;;;27.14;91.00
6433;BME280;3249;42.690;23.260;2023-07-22T07:32:39;94430.78;;;27.22;91.72
6433;BME280;3249;42.690;23.260;2023-07-22T07:35:08;94425.84;;;26.78;91.06
6433;BME280;3249;42.690;23.260;2023-07-22T07:37:37;94427.97;;;27.01;88.79
6433;BME280;3249;42.690;23.260;2023-07-22T07:40:08;94406.13;;;26.67;91.18
6433;BME280;3249;42.690;23.260;2023-07-22T07:42:40;94417.91;;;26.95;90.23
6433;BME280;3249;42.690;23.260;2023-07-22T07:45:09;94417.56;;;27.22;87.71
6433;BME280;3249;42.690;23.260;2023-07-22T07:47:38;94415.66;;;27.31;87.72
6433;BME280;3249;42.690;23.260;2023-07-22T07:50:08;94411.88;;;27.49;86.26
6433;BME280;3249;42.690;23.260;2023-07-22T07:52:37;94412.63;;;27.49;92.06
6433;BME280;3249;42.690;23.260;2023-07-22T07:55:07;94409.78;;;27.17;88.03
6433;BME280;3249;42.690;23.260;2023-07-22T07:57:36;94405.16;;;26.80;90.49
6433;BME280;3249;42.690;23.260;2023-07-22T08:00:09;94413.09;;;26.80;93.90
6433;BME280;3249;42.690;23.260;2023-07-22T08:02:38;94408.25;;;26.90;90.92
6433;BME280;3249;42.690;23.260;2023-07-22T08:05:08;94404.16;;;27.27;88.37
6433;BME280;3249;42.690;23.260;2023-07-22T08:07:38;94409.63;;;27.59;85.54
6433;BME280;3249;42.690;23.260;2023-07-22T08:10:07;94409.72;;;27.42;86.11
6433;BME280;3249;42.690;23.260;2023-07-22T08:12:36;94412.91;;;27.56;85.28
6433;BME280;3249;42.690;23.260;2023-07-22T08:15:09;94406.09;;;27.47;85.50
6433;BME280;3249;42.690;23.260;2023-07-22T08:17:38;94411.88;;;27.49;86.78
6433;BME280;3249;42.690;23.260;2023-07-22T08:20:08;94413.59;;;27.74;87.73
6433;BME280;3249;42.690;23.260;2023-07-22T08:22:37;94401.38;;;27.61;86.24
6433;BME280;3249;42.690;23.260;2023-07-22T08:25:06;94405.28;;;27.55;85.75
6433;BME280;3249;42.690;23.260;2023-07-22T08:27:35;94405.16;;;27.89;82.10
6433;BME280;3249;42.690;23.260;2023-07-22T08:30:08;94414.44;;;28.24;79.97
6433;BME280;3249;42.690;23.260;2023-07-22T08:32:37;94388.28;;;28.43;78.31
6433;BME280;3249;42.690;23.260;2023-07-22T08:35:07;94386.50;;;28.67;76.79
6433;BME280;3249;42.690;23.260;2023-07-22T08:37:36;94386.47;;;28.88;78.03
6433;BME280;3249;42.690;23.260;2023-07-22T08:40:07;94369.56;;;28.92;77.10
6433;BME280;3249;42.690;23.260;2023-07-22T08:42:38;94360.50;;;28.49;80.35
6433;BME280;3249;42.690;23.260;2023-07-22T08:45:10;94369.56;;;28.48;81.88
6433;BME280;3249;42.690;23.260;2023-07-22T08:47:45;94359.25;;;28.79;77.91
6433;BME280;3249;42.690;23.260;2023-07-22T08:50:20;94358.28;;;28.51;79.53
6433;BME280;3249;42.690;23.260;2023-07-22T08:52:49;94358.38;;;28.75;78.91
6433;BME280;3249;42.690;23.260;2023-07-22T08:55:20;94353.13;;;28.34;81.26
6433;BME280;3249;42.690;23.260;2023-07-22T08:57:50;94348.31;;;28.68;77.97
6433;BME280;3249;42.690;23.260;2023-07-22T09:00:22;94344.44;;;28.66;77.06
6433;BME280;3249;42.690;23.260;2023-07-22T09:02:52;94352.03;;;28.88;73.13
6433;BME280;3249;42.690;23.260;2023-07-22T09:05:22;94347.13;;;28.78;73.15
6433;BME280;3249;42.690;23.260;2023-07-22T09:07:51;94340.59;;;28.75;74.70
6433;BME280;3249;42.690;23.260;2023-07-22T09:10:21;94342.19;;;28.88;77.88
6433;BME280;3249;42.690;23.260;2023-07-22T09:12:51;94339.97;;;29.35;77.99
6433;BME280;3249;42.690;23.260;2023-07-22T09:15:25;94343.28;;;29.32;73.38
6433;BME280;3249;42.690;23.260;2023-07-22T09:17:55;94347.94;;;29.35;70.33
6433;BME280;3249;42.690;23.260;2023-07-22T09:20:24;94357.84;;;29.26;68.23
6433;BME280;3249;42.690;23.260;2023-07-22T09:22:54;94340.84;;;29.51;67.10
6433;BME280;3249;42.690;23.260;2023-07-22T09:25:25;94341.53;;;29.60;74.18
6433;BME280;3249;42.690;23.260;2023-07-22T09:27:55;94341.28;;;29.53;71.38
6433;BME280;3249;42.690;23.260;2023-07-22T09:30:30;94342.16;;;29.57;67.03
6433;BME280;3249;42.690;23.260;2023-07-22T09:33:02;94340.56;;;29.65;66.10
6433;BME280;3249;42.690;23.260;2023-07-22T09:35:46;94336.88;;;29.69;69.08
6433;BME280;3249;42.690;23.260;2023-07-22T09:38:22;94340.09;;;29.63;72.28
6433;BME280;3249;42.690;23.260;2023-07-22T09:40:51;94302.50;;;29.73;68.02
6433;BME280;3249;42.690;23.260;2023-07-22T09:43:23;94326.88;;;30.14;65.06
6433;BME280;3249;42.690;23.260;2023-07-22T09:45:55;94333.78;;;30.31;64.22
6433;BME280;3249;42.690;23.260;2023-07-22T09:48:23;94332.91;;;30.27;66.83
6433;BME280;3249;42.690;23.260;2023-07-22T09:50:56;94332.47;;;30.52;52.78
6433;BME280;3249;42.690;23.260;2023-07-22T09:53:25;94323.06;;;30.82;54.06
6433;BME280;3249;42.690;23.260;2023-07-22T09:55:55;94324.38;;;31.04;50.78
6433;BME280;3249;42.690;23.260;2023-07-22T09:58:32;94331.00;;;31.25;50.15
6433;BME280;3249;42.690;23.260;2023-07-22T10:01:05;94333.91;;;31.51;49.96
6433;BME280;3249;42.690;23.260;2023-07-22T10:03:37;94331.94;;;31.64;49.03
6433;BME280;3249;42.690;23.260;2023-07-22T10:06:09;94339.03;;;31.75;50.15
6433;BME280;3249;42.690;23.260;2023-07-22T10:08:39;94333.81;;;31.79;44.47
6433;BME280;3249;42.690;23.260;2023-07-22T10:11:10;94346.88;;;31.84;41.89
6433;BME280;3249;42.690;23.260;2023-07-22T10:13:40;94335.50;;;31.87;41.33
6433;BME280;3249;42.690;23.260;2023-07-22T10:16:12;94334.53;;;31.95;40.70
6433;BME280;3249;42.690;23.260;2023-07-22T10:18:42;94316.09;;;31.86;39.80
6433;BME280;3249;42.690;23.260;2023-07-22T10:21:12;94344.81;;;32.12;40.73
6433;BME280;3249;42.690;23.260;2023-07-22T10:23:41;94321.75;;;32.19;41.22
6433;BME280;3249;42.690;23.260;2023-07-22T10:26:15;94325.34;;;32.27;40.81
6433;BME280;3249;42.690;23.260;2023-07-22T10:28:46;94324.50;;;32.42;40.15
6433;BME280;3249;42.690;23.260;2023-07-22T10:31:18;94336.78;;;32.46;38.94
6433;BME280;3249;42.690;23.260;2023-07-22T10:33:48;94339.19;;;32.51;38.08
6433;BME280;3249;42.690;23.260;2023-07-22T10:36:18;94331.59;;;32.53;37.95
6433;BME280;3249;42.690;23.260;2023-07-22T10:38:55;94324.00;;;32.55;37.66
6433;BME280;3249;42.690;23.260;2023-07-22T10:41:24;94326.81;;;32.62;38.12
6433;BME280;3249;42.690;23.260;2023-07-22T10:43:54;94325.97;;;32.77;35.97
6433;BME280;3249;42.690;23.260;2023-07-22T10:46:36;94327.38;;;32.90;35.64
6433;BME280;3249;42.690;23.260;2023-07-22T10:49:10;94324.91;;;32.82;35.09
6433;BME280;3249;42.690;23.260;2023-07-22T10:51:40;94316.34;;;32.73;35.51
6433;BME280;3249;42.690;23.260;2023-07-22T10:54:13;94325.00;;;32.85;36.08
6433;BME280;3249;42.690;23.260;2023-07-22T10:56:43;94322.72;;;32.87;35.06
6433;BME280;3249;42.690;23.260;2023-07-22T10:59:12;94316.03;;;32.97;34.23
6433;BME280;3249;42.690;23.260;2023-07-22T11:01:47;94324.19;;;33.04;33.51
6433;BME280;3249;42.690;23.260;2023-07-22T11:04:24;94317.78;;;33.08;34.22
6433;BME280;3249;42.690;23.260;2023-07-22T11:06:57;94320.56;;;33.15;34.32
6433;BME280;3249;42.690;23.260;2023-07-22T11:09:43;94308.47;;;33.21;34.17
6433;BME280;3249;42.690;23.260;2023-07-22T11:12:14;94314.13;;;33.39;33.98
6433;BME280;3249;42.690;23.260;2023-07-22T11:14:48;94318.44;;;33.47;33.14
6433;BME280;3249;42.690;23.260;2023-07-22T11:17:28;94327.19;;;33.48;33.29
6433;BME280;3249;42.690;23.260;2023-07-22T11:20:00;94309.13;;;33.64;32.95
6433;BME280;3249;42.690;23.260;2023-07-22T11:22:30;94314.88;;;33.88;32.60
6433;BME280;3249;42.690;23.260;2023-07-22T11:25:00;94315.81;;;34.03;33.05
6433;BME280;3249;42.690;23.260;2023-07-22T11:27:29;94312.16;;;33.85;32.53
6433;BME280;3249;42.690;23.260;2023-07-22T11:29:59;94306.38;;;33.83;32.91
6433;BME280;3249;42.690;23.260;2023-07-22T11:32:34;94315.00;;;33.99;33.00
6433;BME280;3249;42.690;23.260;2023-07-22T11:35:03;94305.44;;;33.98;33.31
6433;BME280;3249;42.690;23.260;2023-07-22T11:37:33;94307.66;;;34.22;32.84
6433;BME280;3249;42.690;23.260;2023-07-22T11:40:02;94311.59;;;34.28;32.45
6433;BME280;3249;42.690;23.260;2023-07-22T11:42:33;94295.69;;;34.09;31.91
6433;BME280;3249;42.690;23.260;2023-07-22T11:45:06;94294.53;;;34.10;32.12
6433;BME280;3249;42.690;23.260;2023-07-22T11:47:37;94295.38;;;33.88;32.74
6433;BME280;3249;42.690;23.260;2023-07-22T11:50:07;94292.00;;;33.91;33.05
6433;BME280;3249;42.690;23.260;2023-07-22T11:52:36;94290.22;;;34.02;33.28
6433;BME280;3249;42.690;23.260;2023-07-22T11:55:06;94289.56;;;34.08;33.12
6433;BME280;3249;42.690;23.260;2023-07-22T11:57:36;94290.59;;;34.00;33.91
6433;BME280;3249;42.690;23.260;2023-07-22T12:00:08;94291.75;;;34.03;33.02
6433;BME280;3249;42.690;23.260;2023-07-22T12:02:41;94286.94;;;34.12;33.88
6433;BME280;3249;42.690;23.260;2023-07-22T12:05:10;94287.00;;;34.19;33.74
6433;BME280;3249;42.690;23.260;2023-07-22T12:07:39;94289.53;;;34.34;32.90
6433;BME280;3249;42.690;23.260;2023-07-22T12:10:09;94284.22;;;34.38;32.33
6433;BME280;3249;42.690;23.260;2023-07-22T12:12:40;94283.84;;;34.39;32.93
6433;BME280;3249;42.690;23.260;2023-07-22T12:15:11;94276.72;;;34.21;32.72
6433;BME280;3249;42.690;23.260;2023-07-22T12:17:52;94275.81;;;34.10;33.47
6433;BME280;3249;42.690;23.260;2023-07-22T12:20:24;94283.13;;;34.13;32.71
6433;BME280;3249;42.690;23.260;2023-07-22T12:22:54;94278.59;;;34.17;32.48
6433;BME280;3249;42.690;23.260;2023-07-22T12:25:24;94260.59;;;34.14;33.21
6433;BME280;3249;42.690;23.260;2023-07-22T12:27:53;94273.50;;;34.38;32.85
6433;BME280;3249;42.690;23.260;2023-07-22T12:30:22;94263.06;;;34.29;32.40
6433;BME280;3249;42.690;23.260;2023-07-22T12:32:56;94272.44;;;34.13;32.71
6433;BME280;3249;42.690;23.260;2023-07-22T12:35:25;94269.63;;;34.02;33.41
6433;BME280;3249;42.690;23.260;2023-07-22T12:37:54;94266.91;;;33.99;33.52
6433;BME280;3249;42.690;23.260;2023-07-22T12:40:23;94264.00;;;34.11;33.76
6433;BME280;3249;42.690;23.260;2023-07-22T12:42:52;94254.88;;;34.12;32.88
6433;BME280;3249;42.690;23.260;2023-07-22T12:45:21;94255.28;;;34.17;32.44
6433;BME280;3249;42.690;23.260;2023-07-22T12:47:50;94263.19;;;34.36;33.17
6433;BME280;3249;42.690;23.260;2023-07-22T12:50:22;94260.69;;;34.54;31.97
6433;BME280;3249;42.690;23.260;2023-07-22T12:52:52;94256.94;;;34.58;31.77
6433;BME280;3249;42.690;23.260;2023-07-22T12:55:21;94257.38;;;34.64;31.02
6433;BME280;3249;42.690;23.260;2023-07-22T12:57:49;94251.25;;;34.63;31.29
6433;BME280;3249;42.690;23.260;2023-07-22T13:00:19;94253.91;;;34.63;31.62
6433;BME280;3249;42.690;23.260;2023-07-22T13:02:48;94246.78;;;34.38;32.05
6433;BME280;3249;42.690;23.260;2023-07-22T13:05:18;94240.78;;;34.48;31.84
6433;BME280;3249;42.690;23.260;2023-07-22T13:07:50;94229.88;;;34.30;32.89
6433;BME280;3249;42.690;23.260;2023-07-22T13:10:22;94216.72;;;34.48;32.23
6433;BME280;3249;42.690;23.260;2023-07-22T13:12:58;94233.41;;;34.78;32.04
6433;BME280;3249;42.690;23.260;2023-07-22T13:15:28;94231.69;;;34.96;31.72
6433;BME280;3249;42.690;23.260;2023-07-22T13:17:57;94226.72;;;34.98;31.74
6433;BME280;3249;42.690;23.260;2023-07-22T13:20:25;94234.88;;;35.12;30.36